createdAt,value
2023-04-06T07:03:25.170Z,12.18
2023-04-06T07:04:26.693Z,14.63
2023-04-06T07:05:29.174Z,13.05
2023-04-06T07:06:30.912Z,13.20
2023-04-06T07:07:35.794Z,11.15
2023-04-06T07:08:39.479Z,11.73
2023-04-06T07:09:41.330Z,11.98
2023-04-06T07:10:42.985Z,11.25
2023-04-06T07:11:44.457Z,11.10
2023-04-06T07:12:45.919Z,12.00
2023-04-06T07:13:47.439Z,11.95
2023-04-06T07:14:48.937Z,12.68
2023-04-06T07:15:51.077Z,11.60
2023-04-06T07:16:52.640Z,13.23
2023-04-06T07:17:55.559Z,12.50
2023-04-06T07:18:57.286Z,14.38
2023-04-06T07:19:58.795Z,11.52
2023-04-06T07:21:00.326Z,12.60
2023-04-06T07:22:01.997Z,10.90
2023-04-06T07:23:03.760Z,11.85
2023-04-06T07:24:05.428Z,11.07
2023-04-06T07:25:07.268Z,13.30
2023-04-06T07:26:08.840Z,13.18
2023-04-06T07:27:10.571Z,12.50
2023-04-06T07:28:12.281Z,12.45
2023-04-06T07:29:13.727Z,11.30
2023-04-06T07:30:15.303Z,11.90
2023-04-06T07:31:17.285Z,12.10
2023-04-06T07:32:18.963Z,12.23
2023-04-06T07:33:20.658Z,13.43
2023-04-06T07:34:22.786Z,12.27
2023-04-06T07:35:25.543Z,12.35
2023-04-06T07:36:27.017Z,11.15
2023-04-06T07:37:28.544Z,11.48
2023-04-06T07:38:29.933Z,11.68
2023-04-06T07:39:31.705Z,13.43
2023-04-06T07:40:33.728Z,11.82
2023-04-06T07:41:35.187Z,11.75
2023-04-06T07:42:36.877Z,12.77
2023-04-06T07:43:39.222Z,11.65
2023-04-06T07:44:40.914Z,11.30
2023-04-06T07:45:42.464Z,13.07
2023-04-06T07:46:43.926Z,12.13
2023-04-06T07:47:45.513Z,10.23
2023-04-06T07:48:47.078Z,11.63
2023-04-06T07:49:48.456Z,9.48
2023-04-06T07:50:50.090Z,10.50
2023-04-06T07:51:51.549Z,11.13
2023-04-06T07:52:52.951Z,11.27
2023-04-06T07:53:54.502Z,10.82
2023-04-06T07:54:55.942Z,10.20
2023-04-06T07:55:58.834Z,10.52
2023-04-06T07:57:00.510Z,9.55
2023-04-06T07:58:02.167Z,9.60
2023-04-06T07:59:04.035Z,10.45
2023-04-06T08:00:06.593Z,9.13
2023-04-06T08:01:08.297Z,10.05
2023-04-06T08:02:09.969Z,10.95
2023-04-06T08:03:11.935Z,8.60
2023-04-06T08:04:13.934Z,9.88
2023-04-06T08:05:15.700Z,8.65
2023-04-06T08:06:18.057Z,9.25
2023-04-06T08:07:19.576Z,8.30
2023-04-06T08:08:22.199Z,8.18
2023-04-06T08:09:23.933Z,8.48
2023-04-06T08:10:25.590Z,7.63
2023-04-06T08:11:27.704Z,8.82
2023-04-06T08:12:29.148Z,9.25
2023-04-06T08:13:30.722Z,8.82
2023-04-06T08:14:32.180Z,7.72
2023-04-06T08:15:33.667Z,7.70
2023-04-06T08:16:35.180Z,7.95
2023-04-06T08:17:36.741Z,6.68
2023-04-06T08:18:38.315Z,7.55
2023-04-06T08:19:39.818Z,6.50
2023-04-06T08:20:41.593Z,7.40
2023-04-06T08:21:43.451Z,6.97
2023-04-06T08:22:45.197Z,6.70
2023-04-06T08:23:47.163Z,8.07
2023-04-06T08:24:48.603Z,6.13
2023-04-06T08:25:50.069Z,8.18
2023-04-06T08:26:52.371Z,7.18
2023-04-06T08:27:54.041Z,7.20
2023-04-06T08:28:55.479Z,6.88
2023-04-06T08:29:56.919Z,6.63
2023-04-06T08:30:58.493Z,6.22
2023-04-06T08:31:59.937Z,10.52
2023-04-06T08:33:01.581Z,10.50
2023-04-06T08:34:05.298Z,6.82
2023-04-06T08:35:07.769Z,5.47
2023-04-06T08:36:13.870Z,6.88
2023-04-06T08:37:15.342Z,6.15
2023-04-06T08:38:17.155Z,6.13
2023-04-06T08:39:24.859Z,5.80
2023-04-06T08:40:26.464Z,6.35
2023-04-06T08:41:28.909Z,5.82
2023-04-06T08:42:33.610Z,5.68
2023-04-06T08:43:49.199Z,5.70
2023-04-06T08:44:53.193Z,6.60
2023-04-06T08:45:54.685Z,5.50
2023-04-06T08:46:56.171Z,6.32
2023-04-06T08:47:59.873Z,6.32
2023-04-06T08:49:07.696Z,6.70
2023-04-06T08:50:12.232Z,7.03
2023-04-06T08:51:13.973Z,7.40
2023-04-06T08:52:19.310Z,6.20
2023-04-06T08:53:24.030Z,6.70
2023-04-06T08:54:26.231Z,7.07
2023-04-06T08:55:28.105Z,6.45
2023-04-06T08:56:30.014Z,7.43
2023-04-06T08:57:32.829Z,6.40
2023-04-06T08:58:38.981Z,7.70
2023-04-06T08:59:41.266Z,5.53
2023-04-06T09:00:44.288Z,7.10
2023-04-06T09:01:47.263Z,6.80
2023-04-06T09:02:50.723Z,6.50
2023-04-06T09:03:56.352Z,6.18
2023-04-06T09:04:58.466Z,5.95
2023-04-06T09:06:00.627Z,6.50
2023-04-06T09:07:02.284Z,6.65
2023-04-06T09:08:03.982Z,6.85
2023-04-06T09:09:05.457Z,5.50
2023-04-06T09:10:07.519Z,5.75
2023-04-06T09:11:09.673Z,6.57
2023-04-06T09:12:13.251Z,6.28
2023-04-06T09:13:14.836Z,6.85
2023-04-06T09:14:17.485Z,6.03
2023-04-06T09:15:24.664Z,6.85
2023-04-06T09:16:26.950Z,6.15
2023-04-06T09:17:30.865Z,5.95
2023-04-06T09:18:33.589Z,6.10
2023-04-06T09:19:35.068Z,7.05
2023-04-06T09:20:36.557Z,7.20
2023-04-06T09:21:38.715Z,6.70
2023-04-06T09:22:41.380Z,7.40
2023-04-06T09:23:42.897Z,6.75
2023-04-06T09:24:49.320Z,8.18
2023-04-06T09:25:50.910Z,8.02
2023-04-06T09:26:52.323Z,7.70
2023-04-06T09:28:01.690Z,7.93
2023-04-06T09:29:04.442Z,8.27
2023-04-06T09:30:15.044Z,8.10
2023-04-06T09:31:22.978Z,7.05
2023-04-06T09:32:24.482Z,8.68
2023-04-06T09:33:26.080Z,7.32
2023-04-06T09:34:27.614Z,8.25
2023-04-06T09:35:30.910Z,7.97
2023-04-06T09:36:39.347Z,8.27
2023-04-06T09:37:40.842Z,7.43
2023-04-06T09:39:06.540Z,7.30
2023-04-06T09:40:08.815Z,9.05
2023-04-06T09:41:10.401Z,9.18
2023-04-06T09:42:33.595Z,9.27
2023-04-06T09:43:35.088Z,10.05
2023-04-06T09:44:36.804Z,10.50
2023-04-06T09:45:38.286Z,10.77
2023-04-06T09:46:57.837Z,11.55
2023-04-06T09:48:01.493Z,12.00
2023-04-06T09:49:04.392Z,9.85
2023-04-06T09:50:06.467Z,9.93
2023-04-06T09:51:08.739Z,10.27
2023-04-06T09:52:13.284Z,9.68
2023-04-06T09:53:15.586Z,9.35
2023-04-06T09:54:21.155Z,8.60
2023-04-06T09:55:31.558Z,8.82
2023-04-06T09:57:04.927Z,9.07
2023-04-06T09:58:08.193Z,9.30
2023-04-06T09:59:15.380Z,9.88
2023-04-06T10:00:21.740Z,9.40
2023-04-06T10:01:27.299Z,8.65
2023-04-06T10:03:07.855Z,8.43
2023-04-06T10:04:18.200Z,8.50
2023-04-06T10:05:22.550Z,8.02
2023-04-06T10:06:28.309Z,7.80
2023-04-06T10:07:30.535Z,8.80
2023-04-06T10:08:36.915Z,8.02
2023-04-06T10:09:39.300Z,8.25
2023-04-06T10:10:40.904Z,8.57
2023-04-06T10:11:42.729Z,7.88
2023-04-06T10:12:45.479Z,8.50
2023-04-06T10:13:49.733Z,8.52
2023-04-06T10:14:51.821Z,8.52
2023-04-06T10:15:53.814Z,8.73
2023-04-06T10:16:55.556Z,8.65
2023-04-06T10:18:02.428Z,9.43
2023-04-06T10:19:14.365Z,8.75
2023-04-06T10:20:23.989Z,8.23
2023-04-06T10:21:28.554Z,8.02
2023-04-06T10:23:00.290Z,8.18
2023-04-06T10:24:07.914Z,7.88
2023-04-06T10:25:10.424Z,7.68
2023-04-06T10:26:17.477Z,6.85
2023-04-06T10:27:28.852Z,7.88
2023-04-06T10:28:36.606Z,7.90
2023-04-06T10:29:46.244Z,7.28
2023-04-06T10:30:47.750Z,7.70
2023-04-06T10:31:50.075Z,8.07
2023-04-06T10:32:51.663Z,6.95
2023-04-06T10:34:00.505Z,8.93
2023-04-06T10:35:15.305Z,7.15
2023-04-06T10:36:27.258Z,7.22
2023-04-06T10:37:28.701Z,8.05
2023-04-06T10:38:41.882Z,7.80
2023-04-06T10:39:56.182Z,7.55
2023-04-06T10:41:05.954Z,7.55
2023-04-06T10:42:07.847Z,7.40
2023-04-06T10:43:13.813Z,7.45
2023-04-06T10:44:25.639Z,6.70
2023-04-06T10:45:32.040Z,7.88
2023-04-06T10:46:34.746Z,7.93
2023-04-06T10:47:42.344Z,7.88
2023-04-06T10:48:47.680Z,7.78
2023-04-06T10:49:49.303Z,6.68
2023-04-06T10:50:52.981Z,6.85
2023-04-06T10:51:55.622Z,7.47
2023-04-06T10:53:02.205Z,6.80
2023-04-06T10:54:06.126Z,7.13
2023-04-06T10:55:11.429Z,7.00
2023-04-06T10:56:16.277Z,6.93
2023-04-06T10:57:29.087Z,7.70
2023-04-06T10:58:31.689Z,7.03
2023-04-06T10:59:33.244Z,6.90
2023-04-06T11:00:47.394Z,7.40
2023-04-06T11:01:51.306Z,6.40
2023-04-06T11:03:00.233Z,6.60
2023-04-06T11:04:02.218Z,7.43
2023-04-06T11:05:03.738Z,6.60
2023-04-06T11:06:05.223Z,7.07
2023-04-06T11:07:06.710Z,5.90
2023-04-06T11:08:08.327Z,7.38
2023-04-06T11:09:10.178Z,6.32
2023-04-06T11:10:17.528Z,6.53
2023-04-06T11:11:22.093Z,5.85
2023-04-06T11:12:27.893Z,6.80
2023-04-06T11:13:45.797Z,5.97
2023-04-06T11:15:05.421Z,6.70
2023-04-06T11:16:07.254Z,5.63
2023-04-06T11:17:08.915Z,6.47
2023-04-06T11:18:12.132Z,6.15
2023-04-06T11:19:13.952Z,6.80
2023-04-06T11:20:16.421Z,5.70
2023-04-06T11:21:18.679Z,5.60
2023-04-06T11:22:20.107Z,5.45
2023-04-06T11:23:28.334Z,6.15
2023-04-06T11:24:29.782Z,5.97
2023-04-06T11:25:33.466Z,5.82
2023-04-06T11:26:55.015Z,5.10
2023-04-06T11:27:56.666Z,6.18
2023-04-06T11:28:58.608Z,7.05
2023-04-06T11:30:01.239Z,6.28
2023-04-06T11:31:02.904Z,5.75
2023-04-06T11:32:07.307Z,6.40
2023-04-06T11:33:08.814Z,6.53
2023-04-06T11:34:12.215Z,6.47
2023-04-06T11:35:25.799Z,6.78
2023-04-06T11:36:31.117Z,5.78
2023-04-06T11:37:33.864Z,6.50
2023-04-06T11:38:39.785Z,7.22
2023-04-06T11:39:43.100Z,6.40
2023-04-06T11:40:44.632Z,7.28
2023-04-06T11:41:53.243Z,6.30
2023-04-06T11:42:56.169Z,6.57
2023-04-06T11:43:57.860Z,6.95
2023-04-06T11:45:00.645Z,5.70
2023-04-06T11:46:04.097Z,5.50
2023-04-06T11:47:10.394Z,5.45
2023-04-06T11:48:23.203Z,5.07
2023-04-06T11:49:32.711Z,7.03
2023-04-06T11:50:37.267Z,5.10
2023-04-06T11:51:38.878Z,5.75
2023-04-06T11:52:42.683Z,5.38
2023-04-06T11:53:47.221Z,6.75
2023-04-06T11:54:50.012Z,5.13
2023-04-06T11:55:51.605Z,8.00
2023-04-06T11:56:53.198Z,5.68
2023-04-06T11:57:54.846Z,5.80
2023-04-06T11:59:00.926Z,5.55
2023-04-06T12:00:02.608Z,5.53
2023-04-06T12:01:05.256Z,5.03
2023-04-06T12:02:06.886Z,5.75
2023-04-06T12:03:08.338Z,6.43
2023-04-06T12:04:09.847Z,6.75
2023-04-06T12:05:11.599Z,5.80
2023-04-06T12:06:13.110Z,5.70
2023-04-06T12:07:14.828Z,5.95
2023-04-06T12:08:16.321Z,7.30
2023-04-06T12:09:21.263Z,5.32
2023-04-06T12:10:22.842Z,4.78
2023-04-06T12:11:24.403Z,5.28
2023-04-06T12:12:26.585Z,5.22
2023-04-06T12:13:28.471Z,6.18
2023-04-06T12:14:31.750Z,5.25
2023-04-06T12:15:33.242Z,5.13
2023-04-06T12:16:35.988Z,5.10
2023-04-06T12:17:37.979Z,5.38
2023-04-06T12:18:39.581Z,5.25
2023-04-06T12:19:41.614Z,5.68
2023-04-06T12:20:43.050Z,6.18
2023-04-06T12:21:44.449Z,5.90
2023-04-06T12:22:46.363Z,5.82
2023-04-06T12:23:48.123Z,5.35
2023-04-06T12:24:49.640Z,5.72
2023-04-06T12:25:51.563Z,5.00
2023-04-06T12:26:59.656Z,6.10
2023-04-06T12:28:08.389Z,5.47
2023-04-06T12:29:09.923Z,5.63
2023-04-06T12:30:12.126Z,6.13
2023-04-06T12:31:24.280Z,5.53
2023-04-06T12:32:25.975Z,6.10
2023-04-06T12:33:27.574Z,6.05
2023-04-06T12:34:29.179Z,6.20
2023-04-06T12:35:34.607Z,6.63
2023-04-06T12:36:38.203Z,5.43
2023-04-06T12:37:39.702Z,4.80
2023-04-06T12:38:42.062Z,5.50
2023-04-06T12:39:45.352Z,4.75
2023-04-06T12:40:46.921Z,5.40
2023-04-06T12:41:48.463Z,5.57
2023-04-06T12:42:49.910Z,4.95
2023-04-06T12:43:51.698Z,5.53
2023-04-06T12:44:53.449Z,4.95
2023-04-06T12:45:54.939Z,6.15
2023-04-06T12:46:57.211Z,5.28
2023-04-06T12:47:59.697Z,5.63
2023-04-06T12:49:02.071Z,4.78
2023-04-06T12:50:03.895Z,5.95
2023-04-06T12:51:07.009Z,4.88
2023-04-06T12:52:09.204Z,5.32
2023-04-06T12:53:10.974Z,5.85
2023-04-06T12:54:12.947Z,5.85
2023-04-06T12:55:14.512Z,5.80
2023-04-06T12:56:18.383Z,5.88
2023-04-06T12:57:20.047Z,5.25
2023-04-06T12:58:22.360Z,5.97
2023-04-06T12:59:26.031Z,4.97
2023-04-06T13:00:27.882Z,5.28
2023-04-06T13:01:30.020Z,5.25
2023-04-06T13:02:32.017Z,4.30
2023-04-06T13:03:33.710Z,4.80
2023-04-06T13:04:35.459Z,5.00
2023-04-06T13:05:36.842Z,5.85
2023-04-06T13:06:38.308Z,5.55
2023-04-06T13:07:39.878Z,6.05
2023-04-06T13:08:42.161Z,6.10
2023-04-06T13:09:43.696Z,6.13
2023-04-06T13:10:48.047Z,5.75
2023-04-06T13:11:49.716Z,5.25
2023-04-06T13:12:51.687Z,5.50
2023-04-06T13:13:53.103Z,5.75
2023-04-06T13:14:54.626Z,5.38
2023-04-06T13:16:07.742Z,5.47
2023-04-06T13:17:09.871Z,5.05
2023-04-06T13:18:11.454Z,4.70
2023-04-06T13:19:13.118Z,5.22
2023-04-06T13:20:14.822Z,5.38
2023-04-06T13:21:17.274Z,4.85
2023-04-06T13:22:18.751Z,4.60
2023-04-06T13:23:20.398Z,5.60
2023-04-06T13:24:22.772Z,5.55
2023-04-06T13:25:24.331Z,4.95
2023-04-06T13:26:26.713Z,4.65
2023-04-06T13:27:28.489Z,4.97
2023-04-06T13:28:30.620Z,5.43
2023-04-06T13:29:32.059Z,4.38
2023-04-06T13:30:33.668Z,5.85
2023-04-06T13:31:35.266Z,5.45
2023-04-06T13:32:37.434Z,6.10
2023-04-06T13:33:39.495Z,5.20
2023-04-06T13:34:45.822Z,4.60
2023-04-06T13:35:47.508Z,5.30
2023-04-06T13:36:49.266Z,5.00
2023-04-06T13:37:53.124Z,5.85
2023-04-06T13:38:57.877Z,4.88
2023-04-06T13:39:59.599Z,4.65
2023-04-06T13:41:01.104Z,5.63
2023-04-06T13:42:04.103Z,4.20
2023-04-06T13:43:05.907Z,4.90
2023-04-06T13:44:07.439Z,5.28
2023-04-06T13:45:09.436Z,5.07
2023-04-06T13:46:11.285Z,5.53
2023-04-06T13:47:13.365Z,5.07
2023-04-06T13:48:14.837Z,4.30
2023-04-06T13:49:16.507Z,4.78
2023-04-06T13:50:17.999Z,5.47
2023-04-06T13:51:19.448Z,4.90
2023-04-06T13:52:21.315Z,5.05
2023-04-06T13:53:22.932Z,5.50
2023-04-06T13:54:24.475Z,4.18
2023-04-06T13:55:26.040Z,5.22
2023-04-06T13:56:27.471Z,5.18
2023-04-06T13:57:30.803Z,5.30
2023-04-06T13:58:32.378Z,5.07
2023-04-06T13:59:36.780Z,4.88
2023-04-06T14:00:38.982Z,5.38
2023-04-06T14:01:40.851Z,15.90
2023-04-06T14:02:42.510Z,7.35
2023-04-06T14:03:46.413Z,8.98
2023-04-06T14:04:48.141Z,5.63
2023-04-06T14:05:49.509Z,5.50
2023-04-06T14:06:50.892Z,5.03
2023-04-06T14:07:52.394Z,5.60
2023-04-06T14:08:53.847Z,5.05
2023-04-06T14:09:55.313Z,5.07
2023-04-06T14:10:57.542Z,4.50
2023-04-06T14:11:58.927Z,5.80
2023-04-06T14:13:00.349Z,5.45
2023-04-06T14:14:02.031Z,5.93
2023-04-06T14:15:03.719Z,6.20
2023-04-06T14:16:05.837Z,4.90
2023-04-06T14:17:07.309Z,6.13
2023-04-06T14:18:09.451Z,5.68
2023-04-06T14:19:12.838Z,5.18
2023-04-06T14:20:16.091Z,5.88
2023-04-06T14:21:17.516Z,5.80
2023-04-06T14:22:19.291Z,6.75
2023-04-06T14:23:21.685Z,5.60
2023-04-06T14:24:23.667Z,5.30
2023-04-06T14:25:25.511Z,5.88
2023-04-06T14:26:27.488Z,6.25
2023-04-06T14:27:28.866Z,5.70
2023-04-06T14:28:31.205Z,5.32
2023-04-06T14:29:32.598Z,5.45
2023-04-06T14:30:34.074Z,5.50
2023-04-06T14:31:36.464Z,5.90
2023-04-06T14:32:38.427Z,5.57
2023-04-06T14:33:40.818Z,6.35
2023-04-06T14:34:42.380Z,5.80
2023-04-06T14:35:43.834Z,5.47
2023-04-06T14:36:45.318Z,5.45
2023-04-06T14:37:46.719Z,5.28
2023-04-06T14:38:48.661Z,6.03
2023-04-06T14:39:50.205Z,5.10
2023-04-06T14:40:51.737Z,5.72
2023-04-06T14:41:53.191Z,5.82
2023-04-06T14:42:56.554Z,5.30
2023-04-06T14:43:58.236Z,4.30
2023-04-06T14:44:59.592Z,5.43
2023-04-06T14:46:02.234Z,5.88
2023-04-06T14:47:06.288Z,6.93
2023-04-06T14:48:08.249Z,8.25
2023-04-06T14:49:09.807Z,6.82
2023-04-06T14:50:11.907Z,7.53
2023-04-06T14:51:13.384Z,7.60
2023-04-06T14:52:14.788Z,7.60
2023-04-06T14:53:16.209Z,7.85
2023-04-06T14:54:17.623Z,7.15
2023-04-06T14:55:19.062Z,7.40
2023-04-06T14:56:24.846Z,7.28
2023-04-06T14:57:26.333Z,7.45
2023-04-06T14:58:27.883Z,7.63
